sensor_id;sensor_type;location;lat;lon;timestamp;P1;durP1;ratioP1;P2;durP2;ratioP2
75684;SDS011;64298;46.050;38.164;2023-04-08T00:00:07;16.63;;;5.38;;
75684;SDS011;64298;46.050;38.164;2023-04-08T00:02:35;8.95;;;4.63;;
75684;SDS011;64298;46.050;38.164;2023-04-08T00:05:01;12.32;;;4.97;;
75684;SDS011;64298;46.050;38.164;2023-04-08T00:07:46;8.13;;;4.45;;
75684;SDS011;64298;46.050;38.164;2023-04-08T00:10:11;11.95;;;5.13;;
75684;SDS011;64298;46.050;38.164;2023-04-08T00:12:37;10.80;;;5.13;;
75684;SDS011;64298;46.050;38.164;2023-04-08T00:15:04;10.52;;;4.75;;
75684;SDS011;64298;46.050;38.164;2023-04-08T00:17:30;11.25;;;5.15;;
75684;SDS011;64298;46.050;38.164;2023-04-08T00:19:56;12.35;;;5.68;;
75684;SDS011;64298;46.050;38.164;2023-04-08T00:22:22;12.27;;;5.85;;
75684;SDS011;64298;46.050;38.164;2023-04-08T00:24:48;11.35;;;5.55;;
75684;SDS011;64298;46.050;38.164;2023-04-08T00:27:14;12.02;;;5.35;;
75684;SDS011;64298;46.050;38.164;2023-04-08T00:29:40;11.77;;;5.85;;
75684;SDS011;64298;46.050;38.164;2023-04-08T00:32:06;10.90;;;5.10;;
75684;SDS011;64298;46.050;38.164;2023-04-08T00:34:32;15.40;;;5.30;;
75684;SDS011;64298;46.050;38.164;2023-04-08T00:36:58;9.75;;;5.32;;
75684;SDS011;64298;46.050;38.164;2023-04-08T00:39:24;12.93;;;5.68;;
75684;SDS011;64298;46.050;38.164;2023-04-08T00:41:50;10.88;;;5.68;;
75684;SDS011;64298;46.050;38.164;2023-04-08T00:44:35;10.95;;;5.13;;
75684;SDS011;64298;46.050;38.164;2023-04-08T00:47:01;8.10;;;5.38;;
75684;SDS011;64298;46.050;38.164;2023-04-08T00:49:29;14.57;;;5.78;;
75684;SDS011;64298;46.050;38.164;2023-04-08T00:54:23;11.38;;;4.88;;
75684;SDS011;64298;46.050;38.164;2023-04-08T00:56:49;10.25;;;5.07;;
75684;SDS011;64298;46.050;38.164;2023-04-08T00:59:16;11.18;;;5.50;;
75684;SDS011;64298;46.050;38.164;2023-04-08T01:04:29;12.85;;;5.35;;
75684;SDS011;64298;46.050;38.164;2023-04-08T01:07:27;14.55;;;6.05;;
75684;SDS011;64298;46.050;38.164;2023-04-08T01:09:55;11.38;;;5.75;;
75684;SDS011;64298;46.050;38.164;2023-04-08T01:12:27;10.35;;;5.43;;
75684;SDS011;64298;46.050;38.164;2023-04-08T01:15:04;12.60;;;5.47;;
75684;SDS011;64298;46.050;38.164;2023-04-08T01:17:33;11.63;;;5.60;;
75684;SDS011;64298;46.050;38.164;2023-04-08T01:20:04;13.90;;;5.75;;
75684;SDS011;64298;46.050;38.164;2023-04-08T01:25:18;11.68;;;6.25;;
75684;SDS011;64298;46.050;38.164;2023-04-08T01:27:50;12.73;;;5.68;;
75684;SDS011;64298;46.050;38.164;2023-04-08T01:30:21;19.65;;;6.72;;
75684;SDS011;64298;46.050;38.164;2023-04-08T01:32:50;13.30;;;6.10;;
75684;SDS011;64298;46.050;38.164;2023-04-08T01:35:20;11.00;;;5.78;;
75684;SDS011;64298;46.050;38.164;2023-04-08T01:37:48;16.65;;;6.80;;
75684;SDS011;64298;46.050;38.164;2023-04-08T01:40:15;14.52;;;6.88;;
75684;SDS011;64298;46.050;38.164;2023-04-08T01:42:48;18.30;;;6.95;;
75684;SDS011;64298;46.050;38.164;2023-04-08T01:45:16;12.10;;;6.53;;
75684;SDS011;64298;46.050;38.164;2023-04-08T01:47:46;14.55;;;6.43;;
75684;SDS011;64298;46.050;38.164;2023-04-08T01:50:13;13.40;;;5.72;;
75684;SDS011;64298;46.050;38.164;2023-04-08T01:52:42;13.52;;;6.78;;
75684;SDS011;64298;46.050;38.164;2023-04-08T01:55:11;9.48;;;5.95;;
75684;SDS011;64298;46.050;38.164;2023-04-08T01:57:37;11.80;;;6.03;;
75684;SDS011;64298;46.050;38.164;2023-04-08T02:00:09;13.10;;;6.30;;
75684;SDS011;64298;46.050;38.164;2023-04-08T02:02:46;13.50;;;5.82;;
75684;SDS011;64298;46.050;38.164;2023-04-08T02:05:13;15.77;;;6.95;;
75684;SDS011;64298;46.050;38.164;2023-04-08T02:07:40;12.82;;;6.55;;
75684;SDS011;64298;46.050;38.164;2023-04-08T02:10:06;11.65;;;6.53;;
75684;SDS011;64298;46.050;38.164;2023-04-08T02:12:32;11.18;;;5.32;;
75684;SDS011;64298;46.050;38.164;2023-04-08T02:14:59;10.90;;;5.85;;
75684;SDS011;64298;46.050;38.164;2023-04-08T02:20:07;11.73;;;5.97;;
75684;SDS011;64298;46.050;38.164;2023-04-08T02:22:41;14.52;;;6.07;;
75684;SDS011;64298;46.050;38.164;2023-04-08T02:25:37;12.25;;;6.35;;
75684;SDS011;64298;46.050;38.164;2023-04-08T02:28:08;16.00;;;6.28;;
75684;SDS011;64298;46.050;38.164;2023-04-08T02:30:42;11.15;;;5.40;;
75684;SDS011;64298;46.050;38.164;2023-04-08T02:33:12;12.57;;;5.72;;
75684;SDS011;64298;46.050;38.164;2023-04-08T02:35:39;14.75;;;6.15;;
75684;SDS011;64298;46.050;38.164;2023-04-08T02:38:07;14.20;;;6.90;;
75684;SDS011;64298;46.050;38.164;2023-04-08T02:40:35;14.07;;;5.82;;
75684;SDS011;64298;46.050;38.164;2023-04-08T02:43:02;15.13;;;5.65;;
75684;SDS011;64298;46.050;38.164;2023-04-08T02:45:32;13.70;;;7.22;;
75684;SDS011;64298;46.050;38.164;2023-04-08T02:48:05;14.43;;;5.47;;
75684;SDS011;64298;46.050;38.164;2023-04-08T02:50:31;13.55;;;6.30;;
75684;SDS011;64298;46.050;38.164;2023-04-08T02:52:57;10.30;;;6.28;;
75684;SDS011;64298;46.050;38.164;2023-04-08T02:55:23;11.00;;;5.80;;
75684;SDS011;64298;46.050;38.164;2023-04-08T02:57:49;10.65;;;5.72;;
75684;SDS011;64298;46.050;38.164;2023-04-08T03:00:16;12.73;;;5.88;;
75684;SDS011;64298;46.050;38.164;2023-04-08T03:02:42;11.60;;;5.80;;
75684;SDS011;64298;46.050;38.164;2023-04-08T03:05:08;10.20;;;5.18;;
75684;SDS011;64298;46.050;38.164;2023-04-08T03:07:34;14.63;;;5.38;;
75684;SDS011;64298;46.050;38.164;2023-04-08T03:10:02;10.15;;;5.60;;
75684;SDS011;64298;46.050;38.164;2023-04-08T03:14:54;12.13;;;5.53;;
75684;SDS011;64298;46.050;38.164;2023-04-08T03:17:20;14.23;;;5.68;;
75684;SDS011;64298;46.050;38.164;2023-04-08T03:19:46;13.00;;;5.95;;
75684;SDS011;64298;46.050;38.164;2023-04-08T03:22:12;22.45;;;6.72;;
75684;SDS011;64298;46.050;38.164;2023-04-08T03:24:38;12.70;;;5.97;;
75684;SDS011;64298;46.050;38.164;2023-04-08T03:27:04;12.38;;;6.43;;
75684;SDS011;64298;46.050;38.164;2023-04-08T03:29:30;11.68;;;5.72;;
75684;SDS011;64298;46.050;38.164;2023-04-08T03:31:56;13.35;;;6.13;;
75684;SDS011;64298;46.050;38.164;2023-04-08T03:34:22;14.05;;;5.78;;
75684;SDS011;64298;46.050;38.164;2023-04-08T03:36:48;12.00;;;6.50;;
75684;SDS011;64298;46.050;38.164;2023-04-08T03:39:14;10.10;;;5.68;;
75684;SDS011;64298;46.050;38.164;2023-04-08T03:41:40;15.80;;;6.05;;
75684;SDS011;64298;46.050;38.164;2023-04-08T03:44:06;9.02;;;5.10;;
75684;SDS011;64298;46.050;38.164;2023-04-08T03:46:32;14.40;;;6.38;;
75684;SDS011;64298;46.050;38.164;2023-04-08T03:48:58;13.05;;;6.50;;
75684;SDS011;64298;46.050;38.164;2023-04-08T03:51:24;14.20;;;6.70;;
75684;SDS011;64298;46.050;38.164;2023-04-08T03:53:50;16.23;;;7.28;;
75684;SDS011;64298;46.050;38.164;2023-04-08T03:56:16;12.60;;;6.40;;
75684;SDS011;64298;46.050;38.164;2023-04-08T03:58:42;19.25;;;6.40;;
75684;SDS011;64298;46.050;38.164;2023-04-08T04:01:08;10.73;;;7.30;;
75684;SDS011;64298;46.050;38.164;2023-04-08T04:03:34;12.90;;;6.28;;
75684;SDS011;64298;46.050;38.164;2023-04-08T04:06:00;15.00;;;7.18;;
75684;SDS011;64298;46.050;38.164;2023-04-08T04:08:26;15.05;;;6.43;;
75684;SDS011;64298;46.050;38.164;2023-04-08T04:10:51;14.15;;;6.65;;
75684;SDS011;64298;46.050;38.164;2023-04-08T04:13:17;11.98;;;6.32;;
75684;SDS011;64298;46.050;38.164;2023-04-08T04:15:44;14.57;;;6.25;;
75684;SDS011;64298;46.050;38.164;2023-04-08T04:18:09;16.70;;;6.38;;
75684;SDS011;64298;46.050;38.164;2023-04-08T04:20:38;15.77;;;6.40;;
75684;SDS011;64298;46.050;38.164;2023-04-08T04:23:05;13.05;;;6.30;;
75684;SDS011;64298;46.050;38.164;2023-04-08T04:25:31;14.55;;;6.15;;
75684;SDS011;64298;46.050;38.164;2023-04-08T04:27:57;13.95;;;6.65;;
75684;SDS011;64298;46.050;38.164;2023-04-08T04:30:23;11.35;;;6.63;;
75684;SDS011;64298;46.050;38.164;2023-04-08T04:32:50;14.30;;;7.07;;
75684;SDS011;64298;46.050;38.164;2023-04-08T04:35:16;12.00;;;5.47;;
75684;SDS011;64298;46.050;38.164;2023-04-08T04:37:42;12.68;;;6.20;;
75684;SDS011;64298;46.050;38.164;2023-04-08T04:40:08;11.05;;;6.15;;
75684;SDS011;64298;46.050;38.164;2023-04-08T04:42:34;11.90;;;5.68;;
75684;SDS011;64298;46.050;38.164;2023-04-08T04:45:00;15.23;;;5.97;;
75684;SDS011;64298;46.050;38.164;2023-04-08T04:47:26;11.90;;;5.82;;
75684;SDS011;64298;46.050;38.164;2023-04-08T04:49:52;13.38;;;7.20;;
75684;SDS011;64298;46.050;38.164;2023-04-08T04:52:18;15.65;;;6.05;;
75684;SDS011;64298;46.050;38.164;2023-04-08T04:54:44;13.85;;;6.72;;
75684;SDS011;64298;46.050;38.164;2023-04-08T04:57:10;16.30;;;6.00;;
75684;SDS011;64298;46.050;38.164;2023-04-08T04:59:36;15.07;;;6.50;;
75684;SDS011;64298;46.050;38.164;2023-04-08T05:02:02;11.48;;;6.05;;
75684;SDS011;64298;46.050;38.164;2023-04-08T05:04:28;13.55;;;6.95;;
75684;SDS011;64298;46.050;38.164;2023-04-08T05:06:54;12.90;;;5.75;;
75684;SDS011;64298;46.050;38.164;2023-04-08T05:09:20;17.55;;;7.25;;
75684;SDS011;64298;46.050;38.164;2023-04-08T05:11:46;15.40;;;6.25;;
75684;SDS011;64298;46.050;38.164;2023-04-08T05:14:30;13.52;;;6.45;;
75684;SDS011;64298;46.050;38.164;2023-04-08T05:16:57;14.73;;;7.05;;
75684;SDS011;64298;46.050;38.164;2023-04-08T05:19:23;11.32;;;6.07;;
75684;SDS011;64298;46.050;38.164;2023-04-08T05:21:49;14.98;;;6.28;;
75684;SDS011;64298;46.050;38.164;2023-04-08T05:24:15;22.98;;;6.85;;
75684;SDS011;64298;46.050;38.164;2023-04-08T05:26:41;13.60;;;6.72;;
75684;SDS011;64298;46.050;38.164;2023-04-08T05:29:07;15.60;;;6.63;;
75684;SDS011;64298;46.050;38.164;2023-04-08T05:31:51;13.80;;;6.35;;
75684;SDS011;64298;46.050;38.164;2023-04-08T05:34:17;15.73;;;6.43;;
75684;SDS011;64298;46.050;38.164;2023-04-08T05:36:50;13.50;;;6.10;;
75684;SDS011;64298;46.050;38.164;2023-04-08T05:39:18;15.65;;;6.72;;
75684;SDS011;64298;46.050;38.164;2023-04-08T05:41:44;21.45;;;7.15;;
75684;SDS011;64298;46.050;38.164;2023-04-08T05:44:11;13.93;;;6.78;;
75684;SDS011;64298;46.050;38.164;2023-04-08T05:46:38;11.27;;;6.78;;
75684;SDS011;64298;46.050;38.164;2023-04-08T05:49:04;13.52;;;8.43;;
75684;SDS011;64298;46.050;38.164;2023-04-08T05:51:30;12.43;;;7.90;;
75684;SDS011;64298;46.050;38.164;2023-04-08T05:53:56;11.68;;;7.32;;
75684;SDS011;64298;46.050;38.164;2023-04-08T05:56:22;15.18;;;7.22;;
75684;SDS011;64298;46.050;38.164;2023-04-08T05:58:49;14.38;;;8.30;;
75684;SDS011;64298;46.050;38.164;2023-04-08T06:01:15;13.98;;;7.38;;
75684;SDS011;64298;46.050;38.164;2023-04-08T06:03:41;15.25;;;6.80;;
75684;SDS011;64298;46.050;38.164;2023-04-08T06:06:10;16.95;;;7.40;;
75684;SDS011;64298;46.050;38.164;2023-04-08T06:08:36;18.20;;;7.15;;
75684;SDS011;64298;46.050;38.164;2023-04-08T06:11:02;15.38;;;7.25;;
75684;SDS011;64298;46.050;38.164;2023-04-08T06:13:29;18.90;;;7.07;;
75684;SDS011;64298;46.050;38.164;2023-04-08T06:15:56;15.55;;;8.02;;
75684;SDS011;64298;46.050;38.164;2023-04-08T06:18:22;13.57;;;6.90;;
75684;SDS011;64298;46.050;38.164;2023-04-08T06:20:48;19.13;;;7.70;;
75684;SDS011;64298;46.050;38.164;2023-04-08T06:23:15;13.82;;;6.75;;
75684;SDS011;64298;46.050;38.164;2023-04-08T06:25:41;16.20;;;7.88;;
75684;SDS011;64298;46.050;38.164;2023-04-08T06:28:07;16.95;;;7.90;;
75684;SDS011;64298;46.050;38.164;2023-04-08T06:30:33;16.65;;;7.45;;
75684;SDS011;64298;46.050;38.164;2023-04-08T06:32:59;13.88;;;6.72;;
75684;SDS011;64298;46.050;38.164;2023-04-08T06:35:25;15.27;;;6.15;;
75684;SDS011;64298;46.050;38.164;2023-04-08T06:37:51;12.73;;;6.15;;
75684;SDS011;64298;46.050;38.164;2023-04-08T06:40:17;12.73;;;6.15;;
75684;SDS011;64298;46.050;38.164;2023-04-08T06:42:43;13.63;;;6.30;;
75684;SDS011;64298;46.050;38.164;2023-04-08T06:45:28;13.82;;;6.07;;
75684;SDS011;64298;46.050;38.164;2023-04-08T06:47:54;12.85;;;6.15;;
75684;SDS011;64298;46.050;38.164;2023-04-08T06:50:20;14.80;;;6.18;;
75684;SDS011;64298;46.050;38.164;2023-04-08T06:52:46;16.85;;;6.13;;
75684;SDS011;64298;46.050;38.164;2023-04-08T06:55:12;11.70;;;6.03;;
75684;SDS011;64298;46.050;38.164;2023-04-08T06:57:38;19.15;;;6.80;;
75684;SDS011;64298;46.050;38.164;2023-04-08T07:00:04;15.73;;;6.32;;
75684;SDS011;64298;46.050;38.164;2023-04-08T07:02:31;17.02;;;6.32;;
75684;SDS011;64298;46.050;38.164;2023-04-08T07:04:56;13.80;;;6.43;;
75684;SDS011;64298;46.050;38.164;2023-04-08T07:07:22;14.07;;;5.43;;
75684;SDS011;64298;46.050;38.164;2023-04-08T07:09:49;14.80;;;6.40;;
75684;SDS011;64298;46.050;38.164;2023-04-08T07:12:15;12.80;;;6.97;;
75684;SDS011;64298;46.050;38.164;2023-04-08T07:14:41;13.63;;;6.07;;
75684;SDS011;64298;46.050;38.164;2023-04-08T07:17:08;15.80;;;6.90;;
75684;SDS011;64298;46.050;38.164;2023-04-08T07:19:34;15.23;;;7.05;;
75684;SDS011;64298;46.050;38.164;2023-04-08T07:22:00;13.77;;;6.75;;
75684;SDS011;64298;46.050;38.164;2023-04-08T07:24:26;11.77;;;6.50;;
75684;SDS011;64298;46.050;38.164;2023-04-08T07:26:52;15.35;;;6.63;;
75684;SDS011;64298;46.050;38.164;2023-04-08T07:29:22;20.10;;;6.43;;
75684;SDS011;64298;46.050;38.164;2023-04-08T07:31:48;16.13;;;6.22;;
75684;SDS011;64298;46.050;38.164;2023-04-08T07:34:14;13.52;;;7.20;;
75684;SDS011;64298;46.050;38.164;2023-04-08T07:36:59;21.20;;;7.05;;
75684;SDS011;64298;46.050;38.164;2023-04-08T07:39:25;12.13;;;6.95;;
75684;SDS011;64298;46.050;38.164;2023-04-08T07:41:51;20.00;;;7.90;;
75684;SDS011;64298;46.050;38.164;2023-04-08T07:44:35;13.82;;;6.07;;
75684;SDS011;64298;46.050;38.164;2023-04-08T07:47:02;21.85;;;10.27;;
75684;SDS011;64298;46.050;38.164;2023-04-08T07:49:28;16.95;;;7.63;;
75684;SDS011;64298;46.050;38.164;2023-04-08T07:51:55;15.32;;;7.38;;
75684;SDS011;64298;46.050;38.164;2023-04-08T07:54:21;23.90;;;7.53;;
75684;SDS011;64298;46.050;38.164;2023-04-08T07:56:47;16.67;;;7.40;;
75684;SDS011;64298;46.050;38.164;2023-04-08T07:59:13;18.40;;;7.13;;
75684;SDS011;64298;46.050;38.164;2023-04-08T08:01:39;11.45;;;7.40;;
75684;SDS011;64298;46.050;38.164;2023-04-08T08:04:05;19.67;;;6.90;;
75684;SDS011;64298;46.050;38.164;2023-04-08T08:06:31;16.10;;;7.30;;
75684;SDS011;64298;46.050;38.164;2023-04-08T08:08:57;16.63;;;7.65;;
75684;SDS011;64298;46.050;38.164;2023-04-08T08:11:24;12.95;;;6.32;;
75684;SDS011;64298;46.050;38.164;2023-04-08T08:13:54;18.52;;;8.13;;
75684;SDS011;64298;46.050;38.164;2023-04-08T08:16:20;23.15;;;7.45;;
75684;SDS011;64298;46.050;38.164;2023-04-08T08:18:46;17.20;;;7.53;;
75684;SDS011;64298;46.050;38.164;2023-04-08T08:21:12;18.27;;;7.72;;
75684;SDS011;64298;46.050;38.164;2023-04-08T08:23:38;17.83;;;8.02;;
75684;SDS011;64298;46.050;38.164;2023-04-08T08:26:04;16.88;;;7.97;;
75684;SDS011;64298;46.050;38.164;2023-04-08T08:28:34;20.08;;;8.20;;
75684;SDS011;64298;46.050;38.164;2023-04-08T08:31:00;18.10;;;9.15;;
75684;SDS011;64298;46.050;38.164;2023-04-08T08:33:26;18.27;;;8.05;;
75684;SDS011;64298;46.050;38.164;2023-04-08T08:35:52;21.42;;;8.57;;
75684;SDS011;64298;46.050;38.164;2023-04-08T08:38:18;17.25;;;8.75;;
75684;SDS011;64298;46.050;38.164;2023-04-08T08:40:44;15.75;;;8.15;;
75684;SDS011;64298;46.050;38.164;2023-04-08T08:43:10;17.40;;;7.95;;
75684;SDS011;64298;46.050;38.164;2023-04-08T08:45:40;17.88;;;8.35;;
75684;SDS011;64298;46.050;38.164;2023-04-08T08:48:06;22.98;;;7.90;;
75684;SDS011;64298;46.050;38.164;2023-04-08T08:50:34;21.83;;;7.50;;
75684;SDS011;64298;46.050;38.164;2023-04-08T08:53:00;13.07;;;6.88;;
75684;SDS011;64298;46.050;38.164;2023-04-08T08:55:28;20.85;;;6.90;;
75684;SDS011;64298;46.050;38.164;2023-04-08T08:57:58;21.90;;;8.35;;
75684;SDS011;64298;46.050;38.164;2023-04-08T09:00:38;18.02;;;8.32;;
75684;SDS011;64298;46.050;38.164;2023-04-08T09:08:29;15.40;;;8.02;;
75684;SDS011;64298;46.050;38.164;2023-04-08T09:10:56;14.18;;;7.57;;
75684;SDS011;64298;46.050;38.164;2023-04-08T09:13:37;17.98;;;8.13;;
75684;SDS011;64298;46.050;38.164;2023-04-08T09:16:04;23.10;;;6.28;;
75684;SDS011;64298;46.050;38.164;2023-04-08T09:18:31;17.00;;;6.82;;
75684;SDS011;64298;46.050;38.164;2023-04-08T09:20:58;15.15;;;8.02;;
75684;SDS011;64298;46.050;38.164;2023-04-08T09:23:38;16.00;;;7.90;;
75684;SDS011;64298;46.050;38.164;2023-04-08T09:26:12;18.35;;;5.03;;
75684;SDS011;64298;46.050;38.164;2023-04-08T09:28:40;17.05;;;5.50;;
75684;SDS011;64298;46.050;38.164;2023-04-08T09:31:20;13.50;;;5.40;;
75684;SDS011;64298;46.050;38.164;2023-04-08T09:33:52;18.33;;;5.07;;
75684;SDS011;64298;46.050;38.164;2023-04-08T09:36:20;18.67;;;5.57;;
75684;SDS011;64298;46.050;38.164;2023-04-08T09:38:47;9.52;;;4.90;;
75684;SDS011;64298;46.050;38.164;2023-04-08T09:41:14;11.32;;;4.25;;
75684;SDS011;64298;46.050;38.164;2023-04-08T09:43:42;16.80;;;4.70;;
75684;SDS011;64298;46.050;38.164;2023-04-08T09:51:58;14.80;;;4.78;;
75684;SDS011;64298;46.050;38.164;2023-04-08T09:57:02;14.38;;;5.05;;
75684;SDS011;64298;46.050;38.164;2023-04-08T09:59:34;16.65;;;6.63;;
75684;SDS011;64298;46.050;38.164;2023-04-08T10:02:07;16.70;;;4.13;;
75684;SDS011;64298;46.050;38.164;2023-04-08T10:04:37;17.52;;;5.00;;
75684;SDS011;64298;46.050;38.164;2023-04-08T10:07:07;9.82;;;4.05;;
75684;SDS011;64298;46.050;38.164;2023-04-08T10:09:33;12.18;;;4.00;;
75684;SDS011;64298;46.050;38.164;2023-04-08T10:12:00;21.20;;;4.88;;
75684;SDS011;64298;46.050;38.164;2023-04-08T10:14:28;9.98;;;4.03;;
75684;SDS011;64298;46.050;38.164;2023-04-08T10:19:52;11.93;;;5.80;;
75684;SDS011;64298;46.050;38.164;2023-04-08T10:27:44;13.98;;;5.22;;
75684;SDS011;64298;46.050;38.164;2023-04-08T10:33:08;16.85;;;6.07;;
75684;SDS011;64298;46.050;38.164;2023-04-08T10:35:42;19.88;;;6.25;;
75684;SDS011;64298;46.050;38.164;2023-04-08T10:38:13;15.27;;;6.75;;
75684;SDS011;64298;46.050;38.164;2023-04-08T10:40:40;19.13;;;7.45;;
75684;SDS011;64298;46.050;38.164;2023-04-08T10:43:12;19.20;;;6.70;;
75684;SDS011;64298;46.050;38.164;2023-04-08T10:45:43;18.55;;;6.10;;
75684;SDS011;64298;46.050;38.164;2023-04-08T10:48:13;17.38;;;7.65;;
75684;SDS011;64298;46.050;38.164;2023-04-08T10:50:44;17.58;;;7.45;;
75684;SDS011;64298;46.050;38.164;2023-04-08T10:53:26;13.27;;;7.25;;
75684;SDS011;64298;46.050;38.164;2023-04-08T11:01:19;17.27;;;6.95;;
75684;SDS011;64298;46.050;38.164;2023-04-08T11:03:45;14.57;;;6.18;;
75684;SDS011;64298;46.050;38.164;2023-04-08T11:06:11;22.88;;;6.57;;
75684;SDS011;64298;46.050;38.164;2023-04-08T11:08:39;13.75;;;6.78;;
75684;SDS011;64298;46.050;38.164;2023-04-08T11:11:06;13.40;;;6.07;;
75684;SDS011;64298;46.050;38.164;2023-04-08T11:13:33;14.40;;;5.57;;
75684;SDS011;64298;46.050;38.164;2023-04-08T11:16:03;16.55;;;5.95;;
75684;SDS011;64298;46.050;38.164;2023-04-08T11:18:33;21.45;;;6.25;;
75684;SDS011;64298;46.050;38.164;2023-04-08T11:20:59;17.88;;;7.25;;
75684;SDS011;64298;46.050;38.164;2023-04-08T11:23:26;19.23;;;7.13;;
75684;SDS011;64298;46.050;38.164;2023-04-08T11:25:52;16.88;;;6.10;;
75684;SDS011;64298;46.050;38.164;2023-04-08T11:28:19;15.25;;;5.50;;
75684;SDS011;64298;46.050;38.164;2023-04-08T11:30:45;15.38;;;5.10;;
75684;SDS011;64298;46.050;38.164;2023-04-08T11:33:15;15.68;;;4.75;;
75684;SDS011;64298;46.050;38.164;2023-04-08T11:35:41;9.50;;;4.75;;
75684;SDS011;64298;46.050;38.164;2023-04-08T11:38:13;15.80;;;4.97;;
75684;SDS011;64298;46.050;38.164;2023-04-08T11:41:01;15.18;;;4.22;;
75684;SDS011;64298;46.050;38.164;2023-04-08T11:43:27;10.30;;;4.20;;
75684;SDS011;64298;46.050;38.164;2023-04-08T11:45:55;9.68;;;4.30;;
75684;SDS011;64298;46.050;38.164;2023-04-08T11:48:24;14.70;;;3.88;;
75684;SDS011;64298;46.050;38.164;2023-04-08T11:51:01;13.80;;;4.28;;
75684;SDS011;64298;46.050;38.164;2023-04-08T11:53:29;15.48;;;4.57;;
75684;SDS011;64298;46.050;38.164;2023-04-08T11:56:05;10.32;;;3.35;;
75684;SDS011;64298;46.050;38.164;2023-04-08T11:58:45;8.35;;;3.17;;
75684;SDS011;64298;46.050;38.164;2023-04-08T12:01:15;12.10;;;3.22;;
75684;SDS011;64298;46.050;38.164;2023-04-08T12:03:59;13.60;;;3.50;;
75684;SDS011;64298;46.050;38.164;2023-04-08T12:06:27;7.15;;;3.28;;
75684;SDS011;64298;46.050;38.164;2023-04-08T12:08:54;9.07;;;3.40;;
75684;SDS011;64298;46.050;38.164;2023-04-08T12:11:20;8.93;;;3.80;;
75684;SDS011;64298;46.050;38.164;2023-04-08T12:13:47;8.80;;;3.47;;
75684;SDS011;64298;46.050;38.164;2023-04-08T12:16:15;8.88;;;3.42;;
75684;SDS011;64298;46.050;38.164;2023-04-08T12:18:41;8.07;;;2.63;;
75684;SDS011;64298;46.050;38.164;2023-04-08T12:21:07;14.00;;;3.72;;
75684;SDS011;64298;46.050;38.164;2023-04-08T12:23:36;11.73;;;3.10;;
75684;SDS011;64298;46.050;38.164;2023-04-08T12:26:02;7.93;;;3.35;;
75684;SDS011;64298;46.050;38.164;2023-04-08T12:28:33;11.70;;;3.75;;
75684;SDS011;64298;46.050;38.164;2023-04-08T12:31:00;10.13;;;3.10;;
75684;SDS011;64298;46.050;38.164;2023-04-08T12:33:26;9.77;;;3.30;;
75684;SDS011;64298;46.050;38.164;2023-04-08T12:35:52;13.50;;;3.70;;
75684;SDS011;64298;46.050;38.164;2023-04-08T12:38:25;12.35;;;4.05;;
75684;SDS011;64298;46.050;38.164;2023-04-08T12:40:51;12.27;;;4.30;;
75684;SDS011;64298;46.050;38.164;2023-04-08T12:43:20;13.63;;;4.85;;
75684;SDS011;64298;46.050;38.164;2023-04-08T12:45:48;13.55;;;4.90;;
75684;SDS011;64298;46.050;38.164;2023-04-08T12:48:14;13.95;;;3.92;;
75684;SDS011;64298;46.050;38.164;2023-04-08T12:50:42;13.52;;;4.07;;
75684;SDS011;64298;46.050;38.164;2023-04-08T12:53:08;14.13;;;3.72;;
75684;SDS011;64298;46.050;38.164;2023-04-08T12:55:38;14.40;;;3.83;;
75684;SDS011;64298;46.050;38.164;2023-04-08T12:58:06;11.45;;;3.33;;
75684;SDS011;64298;46.050;38.164;2023-04-08T13:00:32;11.15;;;3.47;;
75684;SDS011;64298;46.050;38.164;2023-04-08T13:03:17;10.77;;;2.75;;
75684;SDS011;64298;46.050;38.164;2023-04-08T13:05:45;12.48;;;3.30;;
75684;SDS011;64298;46.050;38.164;2023-04-08T13:08:14;7.85;;;3.15;;
75684;SDS011;64298;46.050;38.164;2023-04-08T13:10:43;10.20;;;3.22;;
75684;SDS011;64298;46.050;38.164;2023-04-08T13:13:09;11.95;;;3.60;;
75684;SDS011;64298;46.050;38.164;2023-04-08T13:15:38;8.70;;;3.28;;
75684;SDS011;64298;46.050;38.164;2023-04-08T13:18:04;9.80;;;3.30;;
75684;SDS011;64298;46.050;38.164;2023-04-08T13:20:37;8.02;;;3.60;;
75684;SDS011;64298;46.050;38.164;2023-04-08T13:23:03;18.75;;;4.93;;
75684;SDS011;64298;46.050;38.164;2023-04-08T13:25:38;13.65;;;4.85;;
75684;SDS011;64298;46.050;38.164;2023-04-08T13:28:04;10.63;;;4.13;;
75684;SDS011;64298;46.050;38.164;2023-04-08T13:30:33;21.88;;;5.63;;
75684;SDS011;64298;46.050;38.164;2023-04-08T13:33:01;16.33;;;5.82;;
75684;SDS011;64298;46.050;38.164;2023-04-08T13:35:28;19.17;;;6.50;;
75684;SDS011;64298;46.050;38.164;2023-04-08T13:37:57;11.10;;;4.43;;
75684;SDS011;64298;46.050;38.164;2023-04-08T13:40:25;13.35;;;5.05;;
75684;SDS011;64298;46.050;38.164;2023-04-08T13:42:57;16.00;;;5.15;;
75684;SDS011;64298;46.050;38.164;2023-04-08T13:45:23;13.02;;;4.88;;
75684;SDS011;64298;46.050;38.164;2023-04-08T13:47:51;13.10;;;5.93;;
75684;SDS011;64298;46.050;38.164;2023-04-08T13:50:23;12.50;;;5.78;;
75684;SDS011;64298;46.050;38.164;2023-04-08T13:52:49;15.50;;;6.07;;
75684;SDS011;64298;46.050;38.164;2023-04-08T13:55:15;17.00;;;6.60;;
75684;SDS011;64298;46.050;38.164;2023-04-08T13:57:41;14.35;;;6.40;;
75684;SDS011;64298;46.050;38.164;2023-04-08T14:00:07;14.10;;;6.22;;
75684;SDS011;64298;46.050;38.164;2023-04-08T14:02:37;12.23;;;6.47;;
75684;SDS011;64298;46.050;38.164;2023-04-08T14:05:03;18.55;;;6.15;;
75684;SDS011;64298;46.050;38.164;2023-04-08T14:07:36;14.35;;;6.32;;
75684;SDS011;64298;46.050;38.164;2023-04-08T14:10:05;19.88;;;7.85;;
75684;SDS011;64298;46.050;38.164;2023-04-08T14:12:36;18.80;;;7.22;;
75684;SDS011;64298;46.050;38.164;2023-04-08T14:15:04;15.65;;;8.45;;
75684;SDS011;64298;46.050;38.164;2023-04-08T14:17:31;17.70;;;7.55;;
75684;SDS011;64298;46.050;38.164;2023-04-08T14:20:18;17.05;;;6.60;;
75684;SDS011;64298;46.050;38.164;2023-04-08T14:22:47;17.55;;;7.68;;
75684;SDS011;64298;46.050;38.164;2023-04-08T14:25:13;18.90;;;8.00;;
75684;SDS011;64298;46.050;38.164;2023-04-08T14:27:41;24.88;;;8.45;;
75684;SDS011;64298;46.050;38.164;2023-04-08T14:30:08;20.38;;;8.68;;
75684;SDS011;64298;46.050;38.164;2023-04-08T14:32:35;18.80;;;8.48;;
75684;SDS011;64298;46.050;38.164;2023-04-08T14:35:01;23.75;;;8.50;;
75684;SDS011;64298;46.050;38.164;2023-04-08T14:37:27;18.85;;;8.95;;
75684;SDS011;64298;46.050;38.164;2023-04-08T14:39:56;16.98;;;7.90;;
75684;SDS011;64298;46.050;38.164;2023-04-08T14:42:22;18.02;;;7.47;;
75684;SDS011;64298;46.050;38.164;2023-04-08T14:44:47;19.20;;;6.97;;
75684;SDS011;64298;46.050;38.164;2023-04-08T14:47:32;13.75;;;7.50;;
75684;SDS011;64298;46.050;38.164;2023-04-08T14:49:58;17.40;;;7.75;;
75684;SDS011;64298;46.050;38.164;2023-04-08T14:52:26;19.05;;;8.15;;
75684;SDS011;64298;46.050;38.164;2023-04-08T14:54:58;16.73;;;8.18;;
75684;SDS011;64298;46.050;38.164;2023-04-08T14:57:24;22.65;;;7.97;;
75684;SDS011;64298;46.050;38.164;2023-04-08T14:59:52;15.68;;;7.30;;
75684;SDS011;64298;46.050;38.164;2023-04-08T15:02:18;15.18;;;7.22;;
75684;SDS011;64298;46.050;38.164;2023-04-08T15:04:44;19.95;;;8.00;;
75684;SDS011;64298;46.050;38.164;2023-04-08T15:07:15;10.63;;;6.20;;
75684;SDS011;64298;46.050;38.164;2023-04-08T15:09:41;25.55;;;8.80;;
75684;SDS011;64298;46.050;38.164;2023-04-08T15:12:10;22.42;;;8.27;;